Time;durP1;ratioP1;P1;durP2;ratioP2;P2;SDS_P1;SDS_P2;PMS_P1;PMS_P2;Temp;Humidity;BMP_temperature;BMP_pressure;BME280_temperature;BME280_humidity;BME280_pressure;Samples;Min_cycle;Max_cycle;Signal;HPM_P1;HPM_P2
2023/08/02 00:00:24;;;;;;;2.90;0.70;;;;;;;19.10;67.46;99218.44;10501798;28;20383;-71
2023/08/02 00:05:25;;;;;;;3.38;0.77;;;;;;;19.18;67.01;99209.78;10505469;28;20072;-71
2023/08/02 00:10:27;;;;;;;3.90;0.70;;;;;;;19.19;66.71;99208.72;10504669;28;20108;-72
2023/08/02 00:15:28;;;;;;;2.72;0.60;;;;;;;19.17;66.88;99210.88;10504698;28;20056;-71
2023/08/02 00:20:30;;;;;;;2.92;0.90;;;;;;;19.13;66.79;99208.91;10501327;28;20048;-73
2023/08/02 00:25:32;;;;;;;3.35;0.70;;;;;;;19.14;66.84;99195.03;10504245;28;20041;-72
2023/08/02 00:30:46;;;;;;;4.97;0.70;;;;;;;19.14;66.75;99192.31;10500054;28;20082;-71
2023/08/02 00:35:50;;;;;;;5.65;0.80;;;;;;;19.20;66.40;99185.00;10501508;28;20301;-72
2023/08/02 00:40:52;;;;;;;3.05;0.77;;;;;;;19.19;66.48;99186.91;10503930;28;20379;-72
2023/08/02 00:45:53;;;;;;;3.97;0.80;;;;;;;19.19;66.39;99195.09;10498554;28;20248;-72
2023/08/02 00:50:55;;;;;;;4.72;0.70;;;;;;;19.15;66.75;99184.94;10501886;28;20044;-70
2023/08/02 00:55:57;;;;;;;5.93;1.00;;;;;;;19.24;66.15;99182.59;10500232;28;20059;-71
2023/08/02 01:01:06;;;;;;;4.00;0.80;;;;;;;19.22;66.28;99175.47;10500416;28;20055;-71
2023/08/02 01:06:18;;;;;;;4.28;0.75;;;;;;;19.18;66.33;99174.38;10500811;28;20094;-70
2023/08/02 01:11:29;;;;;;;3.90;0.85;;;;;;;19.08;66.65;99171.56;10498445;28;20049;-72
2023/08/02 01:16:33;;;;;;;4.00;0.50;;;;;;;19.16;66.41;99160.19;10502433;28;20068;-72
2023/08/02 01:21:34;;;;;;;4.57;1.05;;;;;;;19.12;66.94;99167.25;10502660;28;20167;-72
2023/08/02 01:26:40;;;;;;;5.00;1.00;;;;;;;18.99;67.00;99162.22;10499650;28;20375;-72
2023/08/02 01:31:43;;;;;;;4.60;0.90;;;;;;;19.03;67.57;99149.72;10515815;28;20120;-71
2023/08/02 01:36:44;;;;;;;1.83;0.60;;;;;;;18.96;67.80;99144.50;10497593;28;20079;-72
2023/08/02 01:41:46;;;;;;;4.85;1.42;;;;;;;18.89;68.05;99154.78;10497992;28;20111;-72
2023/08/02 01:46:47;;;;;;;3.38;0.80;;;;;;;18.85;68.14;99142.78;10501003;28;20107;-71
2023/08/02 01:51:48;;;;;;;4.72;0.90;;;;;;;18.82;68.18;99140.59;10499791;28;20112;-72
2023/08/02 01:56:50;;;;;;;3.58;0.70;;;;;;;18.76;68.30;99147.88;10499565;28;20304;-71
2023/08/02 02:01:51;;;;;;;4.38;0.80;;;;;;;18.76;68.12;99147.88;10495078;28;20044;-72
2023/08/02 02:06:53;;;;;;;3.20;0.80;;;;;;;18.92;67.49;99137.94;10499892;28;20049;-72
2023/08/02 02:11:54;;;;;;;1.40;0.93;;;;;;;18.96;67.52;99125.44;10501642;28;20041;-71
2023/08/02 02:16:55;;;;;;;1.35;0.80;;;;;;;18.98;67.38;99106.13;10501082;28;20036;-72
2023/08/02 02:21:57;;;;;;;2.22;0.90;;;;;;;18.94;67.38;99097.66;10503082;28;20352;-72
2023/08/02 02:26:58;;;;;;;1.88;0.80;;;;;;;18.94;67.38;99099.56;10504560;28;20067;-71
2023/08/02 02:32:00;;;;;;;3.17;0.60;;;;;;;18.94;67.29;99099.56;10504954;28;20151;-72
2023/08/02 02:37:01;;;;;;;3.30;0.57;;;;;;;19.02;67.17;99104.53;10507270;28;20432;-71
2023/08/02 02:42:03;;;;;;;1.67;0.70;;;;;;;18.98;67.14;99089.78;10504597;28;20060;-73
2023/08/02 02:47:04;;;;;;;1.52;0.70;;;;;;;18.96;67.10;99081.06;10504364;28;20455;-72
2023/08/02 02:52:06;;;;;;;1.58;0.70;;;;;;;19.02;66.86;99077.28;10504151;28;20040;-71
2023/08/02 02:57:08;;;;;;;2.53;0.80;;;;;;;18.94;67.20;99072.34;10504660;28;20045;-72
2023/08/02 03:02:09;;;;;;;3.03;0.70;;;;;;;18.95;66.90;99073.97;10510248;28;20392;-72
2023/08/02 03:07:11;;;;;;;3.88;0.80;;;;;;;19.02;66.77;99056.31;10510814;28;20029;-73
2023/08/02 03:12:12;;;;;;;2.22;0.60;;;;;;;19.09;66.81;99049.81;10509456;28;20100;-72
2023/08/02 03:17:13;;;;;;;2.30;0.60;;;;;;;19.17;66.53;99038.41;10508451;28;20129;-72
2023/08/02 03:22:15;;;;;;;4.25;0.93;;;;;;;19.15;66.50;99035.13;10511579;28;20060;-71
2023/08/02 03:27:16;;;;;;;4.03;0.82;;;;;;;19.11;66.59;99023.13;10510891;28;20120;-71
2023/08/02 03:32:17;;;;;;;3.47;0.73;;;;;;;19.13;66.73;99023.66;10510664;28;20044;-71
2023/08/02 03:37:19;;;;;;;3.58;0.85;;;;;;;19.15;66.50;99016.06;10509329;28;20044;-72
2023/08/02 03:42:21;;;;;;;2.83;0.60;;;;;;;19.17;66.46;99005.72;10508326;28;20052;-72
2023/08/02 03:47:22;;;;;;;0.98;0.60;;;;;;;19.21;66.37;98985.03;10508161;28;20131;-72
2023/08/02 03:52:24;;;;;;;2.08;0.70;;;;;;;19.22;66.35;98992.94;10510104;28;20036;-73
2023/08/02 03:57:25;;;;;;;1.65;0.65;;;;;;;19.28;66.14;98971.16;10507859;28;20059;-71
2023/08/02 04:02:26;;;;;;;3.80;0.77;;;;;;;19.35;65.98;98967.09;10506425;28;20107;-71
2023/08/02 04:07:28;;;;;;;5.18;0.95;;;;;;;19.39;65.66;98948.28;10509486;28;20048;-71
2023/08/02 04:12:29;;;;;;;3.35;0.95;;;;;;;19.52;65.34;98953.22;10508684;28;20453;-71
2023/08/02 04:17:31;;;;;;;5.82;0.80;;;;;;;19.59;65.37;98959.25;10506102;28;20104;-71
2023/08/02 04:22:32;;;;;;;1.75;0.60;;;;;;;19.53;65.46;98965.78;10507152;28;20040;-71
2023/08/02 04:27:34;;;;;;;3.90;0.70;;;;;;;19.52;65.05;98964.13;10506809;28;20052;-71
2023/08/02 04:32:35;;;;;;;1.27;0.47;;;;;;;19.58;65.19;98965.78;10507918;28;20303;-71
2023/08/02 04:37:37;;;;;;;3.30;0.50;;;;;;;19.58;65.20;98949.44;10507730;28;20337;-71
2023/08/02 04:42:38;;;;;;;4.15;0.80;;;;;;;19.64;64.59;98944.00;10509146;28;20056;-71
2023/08/02 04:47:39;;;;;;;5.70;0.70;;;;;;;19.63;64.54;98915.91;10505558;28;20056;-71
2023/08/02 04:52:41;;;;;;;4.05;0.60;;;;;;;19.73;64.91;98915.16;10504943;28;20040;-71
2023/08/02 04:57:42;;;;;;;4.32;0.82;;;;;;;19.81;64.39;98923.59;10505797;28;20154;-71
2023/08/02 05:02:44;;;;;;;2.30;0.65;;;;;;;19.83;64.33;98906.97;10504804;28;20056;-71
2023/08/02 05:07:46;;;;;;;2.67;1.00;;;;;;;19.84;64.50;98916.75;10504825;28;20047;-71
2023/08/02 05:12:47;;;;;;;2.75;0.82;;;;;;;19.80;64.57;98916.50;10503544;28;20064;-71
2023/08/02 05:17:49;;;;;;;5.70;0.80;;;;;;;19.82;64.35;98902.59;10502946;28;20067;-71
2023/08/02 05:22:50;;;;;;;3.33;0.80;;;;;;;19.87;64.15;98893.59;10502730;28;20097;-71
2023/08/02 05:27:52;;;;;;;8.05;0.85;;;;;;;19.89;64.61;98892.22;10504196;28;20127;-71
2023/08/02 05:32:54;;;;;;;1.92;0.70;;;;;;;19.91;64.03;98881.06;10505912;28;20048;-71
2023/08/02 05:37:56;;;;;;;4.20;0.80;;;;;;;19.87;64.25;98875.31;10506254;28;20044;-71
2023/08/02 05:42:58;;;;;;;2.85;0.60;;;;;;;19.78;64.56;98866.03;10504866;28;20284;-70
2023/08/02 05:47:59;;;;;;;5.55;0.60;;;;;;;19.74;64.59;98879.41;10504992;28;20082;-70
2023/08/02 05:53:01;;;;;;;7.03;0.80;;;;;;;19.47;64.91;98868.75;10506202;28;20281;-71
2023/08/02 05:58:03;;;;;;;1.83;0.80;;;;;;;19.09;66.42;98859.94;10509594;28;20120;-71
2023/08/02 06:03:04;;;;;;;2.00;0.88;;;;;;;19.06;66.37;98846.88;10504669;28;20071;-71
2023/08/02 06:08:06;;;;;;;1.50;0.70;;;;;;;19.08;66.56;98838.44;10504337;28;20270;-71
2023/08/02 06:13:07;;;;;;;4.35;0.82;;;;;;;18.88;67.09;98817.41;10504591;28;20032;-72
2023/08/02 06:18:09;;;;;;;2.63;0.82;;;;;;;18.78;67.69;98808.09;10505323;28;20056;-71
2023/08/02 06:23:10;;;;;;;6.57;1.40;;;;;;;18.78;67.58;98797.22;10519938;28;20282;-71
2023/08/02 06:28:11;;;;;;;4.88;0.77;;;;;;;18.70;67.97;98803.19;10504222;28;20044;-70
2023/08/02 06:33:13;;;;;;;3.42;1.00;;;;;;;18.66;68.47;98801.25;10509786;28;20374;-71
2023/08/02 06:38:14;;;;;;;3.90;0.80;;;;;;;18.62;68.43;98796.34;10513665;28;20341;-71
2023/08/02 06:43:16;;;;;;;3.72;1.10;;;;;;;18.61;68.75;98767.50;10514938;28;20071;-71
2023/08/02 06:48:19;;;;;;;6.75;1.05;;;;;;;18.38;69.94;98757.91;10512818;28;20056;-71
2023/08/02 06:53:21;;;;;;;4.30;1.20;;;;;;;18.21;71.02;98749.13;10510804;28;20108;-72
2023/08/02 06:58:22;;;;;;;3.03;0.95;;;;;;;18.16;71.23;98749.91;10512286;28;20115;-72
2023/08/02 07:03:24;;;;;;;5.25;0.77;;;;;;;18.03;71.87;98753.94;10509683;28;20119;-73
2023/08/02 07:08:26;;;;;;;5.10;1.00;;;;;;;17.86;72.61;98742.44;10510138;28;20108;-72
2023/08/02 07:13:27;;;;;;;3.00;1.20;;;;;;;17.69;73.51;98741.75;10512344;28;20080;-73
2023/08/02 07:18:29;;;;;;;4.63;1.67;;;;;;;17.70;74.17;98738.78;10511199;28;20105;-71
2023/08/02 07:23:31;;;;;;;6.38;1.58;;;;;;;17.69;74.53;98717.28;10511861;28;20056;-72
2023/08/02 07:28:32;;;;;;;3.17;1.02;;;;;;;17.55;75.34;98720.47;10511475;28;20067;-71
2023/08/02 07:33:34;;;;;;;4.88;1.08;;;;;;;17.60;75.72;98722.41;10510954;28;20336;-71
2023/08/02 07:38:35;;;;;;;4.93;1.45;;;;;;;17.47;76.02;98722.88;10511061;28;20143;-71
2023/08/02 07:43:36;;;;;;;2.20;1.05;;;;;;;17.51;76.65;98711.19;10509450;28;20349;-70
2023/08/02 07:48:38;;;;;;;4.20;1.10;;;;;;;17.57;76.93;98696.56;10509689;28;20064;-71
2023/08/02 07:53:40;;;;;;;1.80;0.80;;;;;;;17.68;76.71;98689.31;10508086;28;20095;-70
2023/08/02 07:58:41;;;;;;;2.80;0.65;;;;;;;17.75;77.08;98673.59;10508635;28;20069;-69
2023/08/02 08:03:42;;;;;;;2.35;1.15;;;;;;;17.80;77.34;98661.91;10505913;28;20072;-70
2023/08/02 08:08:44;;;;;;;4.03;1.25;;;;;;;17.88;77.41;98658.72;10507255;28;20119;-70
2023/08/02 08:13:45;;;;;;;3.03;1.10;;;;;;;17.83;77.91;98645.94;10507791;28;20108;-70
2023/08/02 08:18:47;;;;;;;5.43;1.10;;;;;;;17.95;78.16;98639.41;10508387;28;20116;-70
2023/08/02 08:23:52;;;;;;;2.60;0.90;;;;;;;18.00;78.35;98632.09;10507702;28;20036;-70
2023/08/02 08:28:53;;;;;;;1.48;0.80;;;;;;;18.01;78.38;98632.94;10511186;28;20048;-70
2023/08/02 08:33:54;;;;;;;1.33;0.75;;;;;;;17.95;78.80;98623.94;10509043;28;20222;-71
2023/08/02 08:38:57;;;;;;;2.30;0.90;;;;;;;18.05;78.66;98623.16;10504641;28;20104;-72
2023/08/02 08:44:03;;;;;;;1.73;1.10;;;;;;;18.01;78.92;98603.84;10507653;28;20214;-72
2023/08/02 08:49:05;;;;;;;2.35;0.93;;;;;;;18.15;78.94;98597.91;10504015;28;20272;-71
2023/08/02 08:54:18;;;;;;;4.90;1.15;;;;;;;18.21;78.88;98603.06;10506744;28;20044;-72
2023/08/02 08:59:20;;;;;;;1.58;0.95;;;;;;;18.15;78.79;98581.59;10500774;28;20365;-72
2023/08/02 09:04:21;;;;;;;1.55;1.00;;;;;;;18.22;78.96;98584.84;10505884;28;20072;-71
2023/08/02 09:09:22;;;;;;;1.88;1.25;;;;;;;18.24;79.14;98577.22;10505046;28;20059;-71
2023/08/02 09:14:24;;;;;;;4.00;1.33;;;;;;;18.24;79.20;98578.03;10506216;28;20044;-72
2023/08/02 09:19:36;;;;;;;1.80;0.98;;;;;;;18.10;79.69;98557.91;10504787;28;20048;-71
2023/08/02 09:24:40;;;;;;;1.55;1.13;;;;;;;18.21;79.68;98550.59;10507336;28;20051;-71
2023/08/02 09:29:50;;;;;;;4.57;1.30;;;;;;;18.32;79.37;98538.59;10506878;28;20100;-71
2023/08/02 09:34:58;;;;;;;1.30;1.00;;;;;;;18.37;79.46;98546.78;10496507;28;20335;-72
2023/08/02 09:40:00;;;;;;;2.28;0.93;;;;;;;18.36;79.73;98534.25;10497961;28;20113;-72
2023/08/02 09:45:06;;;;;;;2.00;0.73;;;;;;;18.30;80.40;98518.22;10504813;28;20047;-73
2023/08/02 09:50:09;;;;;;;3.28;0.85;;;;;;;18.23;80.65;98502.16;10503830;28;20056;-73
2023/08/02 09:55:12;;;;;;;0.88;0.60;;;;;;;18.26;80.97;98495.38;10505211;28;20972;-72
2023/08/02 10:00:15;;;;;;;2.28;0.52;;;;;;;18.28;81.05;98506.78;10504870;28;20097;-72
2023/08/02 10:05:17;;;;;;;1.77;0.65;;;;;;;18.30;81.07;98501.88;10503191;28;20134;-70
2023/08/02 10:10:23;;;;;;;1.25;0.65;;;;;;;18.33;81.09;98480.41;10506027;28;20058;-72
2023/08/02 10:15:26;;;;;;;1.60;0.73;;;;;;;18.31;81.27;98462.72;10504068;28;20068;-71
2023/08/02 10:20:29;;;;;;;1.60;0.80;;;;;;;18.47;81.06;98450.72;10507664;28;20290;-71
2023/08/02 10:25:35;;;;;;;2.50;0.90;;;;;;;18.57;81.33;98444.47;10505674;28;20044;-72
2023/08/02 10:30:38;;;;;;;1.33;0.60;;;;;;;18.57;81.20;98425.41;10501186;28;20053;-70
2023/08/02 10:36:03;;;;;;;1.23;0.60;;;;;;;18.71;81.20;98426.44;10502480;28;20278;-72
2023/08/02 10:41:09;;;;;;;1.80;0.60;;;;;;;18.69;81.37;98411.50;10502989;28;20044;-72
2023/08/02 10:46:18;;;;;;;2.17;0.68;;;;;;;18.67;81.60;98402.78;10503236;28;20119;-72
2023/08/02 10:51:26;;;;;;;15.07;9.27;;;;;;;18.79;81.26;98390.53;10503581;28;20067;-71
2023/08/02 10:56:27;;;;;;;10.65;8.40;;;;;;;18.76;81.52;98399.22;10516223;28;20061;-71
2023/08/02 11:01:29;;;;;;;5.10;4.13;;;;;;;18.98;81.27;98389.91;10496028;28;20057;-71
2023/08/02 11:06:33;;;;;;;10.85;5.82;;;;;;;18.99;81.75;98375.19;10499542;28;20052;-72
2023/08/02 11:11:36;;;;;;;1.35;0.82;;;;;;;19.05;81.52;98371.34;10501809;28;20096;-72
2023/08/02 11:16:42;;;;;;;3.25;0.95;;;;;;;19.08;81.92;98359.91;10503695;28;20048;-71
2023/08/02 11:21:56;;;;;;;;;;;;;;;19.14;82.17;98355.25;10509362;28;20043;-71
2023/08/02 11:26:59;;;;;;;1.23;0.68;;;;;;;19.36;81.65;98341.22;10510536;28;19923;-71
2023/08/02 11:32:04;;;;;;;1.63;0.73;;;;;;;19.43;81.96;98328.06;10509937;28;20280;-70
2023/08/02 11:37:08;;;;;;;1.33;0.43;;;;;;;19.39;82.02;98332.44;10517018;28;20162;-69
2023/08/02 11:42:10;;;;;;;1.70;0.50;;;;;;;19.29;81.88;98325.16;10512111;28;20056;-69
2023/08/02 11:47:11;;;;;;;2.40;0.68;;;;;;;19.25;81.97;98313.19;10509973;28;20345;-70
2023/08/02 11:52:13;;;;;;;1.45;0.50;;;;;;;19.37;82.14;98319.13;10510371;28;20117;-69
2023/08/02 11:57:14;;;;;;;1.50;0.50;;;;;;;19.39;81.99;98332.44;10508160;28;20246;-71
2023/08/02 12:02:30;;;;;;;0.85;0.52;;;;;;;19.44;81.92;98302.44;10507152;28;20063;-72
2023/08/02 12:07:34;;;;;;;1.73;0.63;;;;;;;19.41;82.13;98286.66;10499255;28;20040;-71
2023/08/02 12:12:35;;;;;;;1.67;0.50;;;;;;;19.45;82.27;98282.28;10508686;28;20111;-71
2023/08/02 12:17:37;;;;;;;1.63;0.50;;;;;;;19.56;82.27;98269.38;10508729;28;20060;-72
2023/08/02 12:22:49;;;;;;;1.08;0.60;;;;;;;19.51;82.28;98253.06;10506457;28;20093;-70
2023/08/02 12:28:07;;;;;;;0.85;0.65;;;;;;;19.51;82.27;98223.91;10503211;28;20052;-71
2023/08/02 12:33:08;;;;;;;1.00;0.60;;;;;;;19.58;82.17;98253.53;10512091;28;20116;-72
2023/08/02 12:38:10;;;;;;;2.47;0.80;;;;;;;19.60;82.49;98243.97;10489186;28;20416;-72
2023/08/02 12:43:11;;;;;;;1.15;0.60;;;;;;;19.72;82.25;98240.09;10507539;28;21027;-71
2023/08/02 12:48:12;;;;;;;1.35;0.60;;;;;;;19.76;82.28;98228.31;10507170;28;20398;-71
2023/08/02 12:53:14;;;;;;;3.53;0.70;;;;;;;19.85;82.57;98220.31;10507963;28;20109;-71
2023/08/02 12:58:15;;;;;;;1.00;0.63;;;;;;;19.92;82.46;98219.97;10506915;28;20241;-72
2023/08/02 13:03:17;;;;;;;1.98;0.60;;;;;;;20.04;82.32;98217.63;10505999;28;20420;-71
2023/08/02 13:08:18;;;;;;;1.50;0.93;;;;;;;20.26;82.34;98208.09;10506277;28;20128;-71
2023/08/02 13:13:20;;;;;;;2.25;0.70;;;;;;;20.51;82.51;98202.31;10503414;28;20064;-70
2023/08/02 13:18:21;;;;;;;2.30;0.70;;;;;;;20.80;82.23;98204.91;10505768;28;20115;-71
2023/08/02 13:23:23;;;;;;;0.85;0.52;;;;;;;21.19;81.88;98198.31;10507411;28;20064;-72
2023/08/02 13:28:24;;;;;;;1.50;0.60;;;;;;;21.37;82.24;98193.91;10514702;28;20107;-71
2023/08/02 13:33:26;;;;;;;0.85;0.40;;;;;;;21.69;81.39;98189.53;10507418;28;20060;-72
2023/08/02 13:38:28;;;;;;;1.52;0.73;;;;;;;21.67;80.81;98194.47;10504904;28;20052;-71
2023/08/02 13:43:29;;;;;;;1.05;0.50;;;;;;;21.61;81.32;98203.09;10501975;28;20051;-73
2023/08/02 13:48:30;;;;;;;1.45;0.50;;;;;;;21.70;80.98;98190.31;10504464;28;20047;-69
2023/08/02 13:53:32;;;;;;;1.95;0.77;;;;;;;21.67;80.30;98197.22;10506393;28;20051;-69
2023/08/02 13:58:33;;;;;;;1.23;0.60;;;;;;;21.58;80.58;98185.34;10505426;28;20072;-71
2023/08/02 14:03:35;;;;;;;2.50;1.40;;;;;;;21.44;80.37;98179.06;10504289;28;20110;-71
2023/08/02 14:08:36;;;;;;;1.58;0.75;;;;;;;21.32;80.89;98168.56;10509995;28;20055;-70
2023/08/02 14:13:37;;;;;;;2.20;0.90;;;;;;;21.12;80.53;98165.09;10505409;28;20040;-70
2023/08/02 14:18:39;;;;;;;1.65;0.82;;;;;;;21.12;81.02;98148.69;10502554;28;20104;-71
2023/08/02 14:23:40;;;;;;;1.77;0.90;;;;;;;21.07;80.90;98156.16;10502907;28;20362;-71
2023/08/02 14:28:41;;;;;;;1.45;1.02;;;;;;;21.00;81.01;98165.56;10505397;28;20032;-71
2023/08/02 14:33:43;;;;;;;1.35;0.98;;;;;;;20.90;81.55;98151.25;10504187;28;20095;-72
2023/08/02 14:38:44;;;;;;;2.88;0.98;;;;;;;20.90;81.12;98156.72;10506025;28;20107;-70
2023/08/02 14:43:46;;;;;;;1.67;1.30;;;;;;;20.79;81.66;98147.88;10505837;28;20363;-71
2023/08/02 14:48:47;;;;;;;5.13;1.70;;;;;;;20.82;81.39;98139.09;10503895;28;20040;-71
2023/08/02 14:53:49;;;;;;;2.90;1.95;;;;;;;20.85;81.45;98143.13;10505309;28;20091;-70
2023/08/02 14:59:00;;;;;;;1.65;1.25;;;;;;;20.80;81.96;98150.31;10512458;28;20064;-71
2023/08/02 15:04:02;;;;;;;7.38;1.35;;;;;;;20.58;82.18;98188.31;10518782;28;20384;-70
2023/08/02 15:09:03;;;;;;;2.42;1.00;;;;;;;20.33;82.35;98205.84;10511159;28;20080;-71
2023/08/02 15:14:06;;;;;;;3.13;0.73;;;;;;;20.18;83.10;98165.91;10511988;28;20244;-69
2023/08/02 15:19:12;;;;;;;1.33;0.60;;;;;;;20.05;82.86;98161.19;10510882;28;20119;-69
2023/08/02 15:24:13;;;;;;;2.25;0.80;;;;;;;19.88;83.52;98167.91;10511409;28;20068;-69
2023/08/02 15:29:15;;;;;;;1.13;0.45;;;;;;;19.57;83.16;98105.56;10511289;28;20044;-70
2023/08/02 15:34:17;;;;;;;0.93;0.40;;;;;;;19.20;83.09;98131.56;10510431;28;20448;-70
2023/08/02 15:39:18;;;;;;;2.00;0.40;;;;;;;18.75;82.76;98141.72;10510115;28;20072;-70
2023/08/02 15:44:20;;;;;;;4.78;1.08;;;;;;;18.46;83.11;98119.09;10493682;28;20052;-70
2023/08/02 15:49:21;;;;;;;0.57;0.30;;;;;;;18.55;83.14;98144.59;10509386;28;20058;-70
2023/08/02 15:54:23;;;;;;;2.88;0.40;;;;;;;18.95;82.82;98127.16;10510606;28;20107;-70
2023/08/02 15:59:24;;;;;;;6.63;0.45;;;;;;;18.91;82.78;98112.50;10513154;28;20433;-72
2023/08/02 16:04:25;;;;;;;0.28;0.20;;;;;;;18.91;82.34;98117.13;10507339;28;20041;-71
2023/08/02 16:09:27;;;;;;;3.15;0.47;;;;;;;19.01;82.30;98115.13;10507735;28;20060;-70
2023/08/02 16:14:28;;;;;;;1.75;0.40;;;;;;;19.33;81.83;98116.47;10509265;28;20079;-70
2023/08/02 16:19:30;;;;;;;1.27;0.30;;;;;;;19.63;81.31;98103.59;10509432;28;20325;-70
2023/08/02 16:24:31;;;;;;;2.20;0.30;;;;;;;19.89;80.99;98086.94;10509574;28;20054;-71
2023/08/02 16:29:32;;;;;;;2.47;0.82;;;;;;;20.56;80.24;98084.06;10508938;28;20044;-70
2023/08/02 16:34:34;;;;;;;2.03;0.30;;;;;;;21.13;79.61;98087.47;10509791;28;20119;-70
2023/08/02 16:39:35;;;;;;;0.47;0.15;;;;;;;21.62;78.06;98074.25;10507859;28;20048;-71
2023/08/02 16:44:36;;;;;;;0.52;0.20;;;;;;;22.16;76.80;98072.56;10505926;28;20056;-70
2023/08/02 16:49:38;;;;;;;0.98;0.30;;;;;;;22.64;75.11;98073.13;10508231;28;20052;-70
2023/08/02 16:54:39;;;;;;;0.50;0.30;;;;;;;22.94;73.94;98071.53;10508012;28;20423;-71
2023/08/02 16:59:41;;;;;;;1.23;0.20;;;;;;;22.97;72.64;98076.41;10506876;28;20052;-70
2023/08/02 17:04:42;;;;;;;1.00;0.28;;;;;;;23.26;72.11;98064.97;10505322;28;20068;-69
2023/08/02 17:09:43;;;;;;;1.67;0.20;;;;;;;23.55;71.02;98058.13;10506624;28;20116;-68
2023/08/02 17:14:45;;;;;;;2.55;0.28;;;;;;;23.79;70.18;98073.38;10510883;28;20320;-68
2023/08/02 17:19:46;;;;;;;3.13;0.30;;;;;;;23.99;69.34;98069.22;10505369;28;20056;-68
2023/08/02 17:24:48;;;;;;;0.98;0.20;;;;;;;24.01;68.76;98075.19;10507361;28;20087;-69
2023/08/02 17:29:49;;;;;;;1.13;0.22;;;;;;;24.20;68.14;98069.41;10503389;28;20271;-69
2023/08/02 17:34:50;;;;;;;2.45;0.40;;;;;;;23.79;68.21;98078.88;10505414;28;20241;-69
2023/08/02 17:39:54;;;;;;;0.30;0.15;;;;;;;24.02;67.35;98082.31;10501800;28;20063;-68
2023/08/02 17:44:55;;;;;;;2.05;0.20;;;;;;;23.91;67.65;98084.53;10503421;28;20151;-68
2023/08/02 17:49:58;;;;;;;5.18;2.45;;;;;;;23.81;68.08;98093.06;10505144;28;20041;-69
2023/08/02 17:54:59;;;;;;;1.17;0.20;;;;;;;23.50;68.12;98104.88;10503815;28;20047;-69
2023/08/02 18:00:05;;;;;;;2.00;0.20;;;;;;;23.35;68.45;98104.19;10501918;28;20048;-68
2023/08/02 18:05:07;;;;;;;1.58;0.20;;;;;;;23.24;68.71;98102.03;10505681;28;20052;-69
2023/08/02 18:10:08;;;;;;;0.55;0.20;;;;;;;22.91;69.12;98114.06;10503487;28;20082;-69
2023/08/02 18:15:10;;;;;;;2.42;0.30;;;;;;;22.57;69.72;98123.66;10509766;28;20128;-68
2023/08/02 18:20:11;;;;;;;1.02;0.20;;;;;;;22.38;70.57;98126.56;10504049;28;20040;-68
2023/08/02 18:25:16;;;;;;;0.47;0.28;;;;;;;22.28;70.45;98137.72;10503850;28;20412;-69
2023/08/02 18:30:18;;;;;;;0.60;0.30;;;;;;;22.15;70.94;98141.28;10503891;28;20056;-69
2023/08/02 18:35:23;;;;;;;3.55;0.30;;;;;;;22.04;71.06;98142.59;10504801;28;20108;-69
2023/08/02 18:40:25;;;;;;;2.17;0.40;;;;;;;21.95;71.24;98146.06;10505993;28;20222;-69
2023/08/02 18:45:26;;;;;;;0.65;0.50;;;;;;;21.89;71.61;98166.44;10502783;28;20045;-69
2023/08/02 18:50:28;;;;;;;2.30;0.80;;;;;;;21.82;71.30;98176.97;10503204;28;20119;-70
2023/08/02 18:55:35;;;;;;;2.47;0.30;;;;;;;21.81;70.35;98190.97;10502330;28;20107;-69
2023/08/02 19:00:41;;;;;;;3.78;0.57;;;;;;;21.92;69.03;98211.50;10495649;28;20052;-69
2023/08/02 19:05:45;;;;;;;4.47;0.30;;;;;;;21.82;69.14;98201.59;10502137;28;20342;-69
2023/08/02 19:10:48;;;;;;;2.20;0.30;;;;;;;21.84;67.41;98215.78;10502800;28;20041;-71
2023/08/02 19:15:49;;;;;;;2.33;0.57;;;;;;;21.90;67.06;98219.22;10502275;28;20272;-72
2023/08/02 19:20:53;;;;;;;1.85;0.20;;;;;;;21.87;65.96;98244.44;10500136;28;20048;-72
2023/08/02 19:25:55;;;;;;;2.75;0.40;;;;;;;21.98;64.33;98254.91;10500935;28;20060;-72
2023/08/02 19:30:56;;;;;;;5.63;0.88;;;;;;;22.10;63.01;98262.59;10502795;28;20044;-72
2023/08/02 19:35:57;;;;;;;1.40;0.30;;;;;;;22.18;61.19;98272.03;10503675;28;20118;-71
2023/08/02 19:40:59;;;;;;;4.30;0.40;;;;;;;22.28;60.46;98285.53;10510857;28;20104;-72
2023/08/02 19:46:00;;;;;;;7.13;0.93;;;;;;;22.31;61.12;98293.13;10508557;28;20071;-72
2023/08/02 19:51:05;;;;;;;4.80;1.10;;;;;;;22.31;61.39;98292.34;10511269;28;20115;-72
2023/08/02 19:56:06;;;;;;;4.32;0.50;;;;;;;22.28;62.16;98304.72;10511011;28;20392;-72
2023/08/02 20:01:08;;;;;;;5.68;0.30;;;;;;;22.13;62.08;98304.97;10506898;28;20040;-72
2023/08/02 20:06:10;;;;;;;4.93;0.35;;;;;;;22.08;61.06;98321.50;10508764;28;20071;-72
2023/08/02 20:11:12;;;;;;;2.28;0.30;;;;;;;22.02;60.36;98326.25;10507431;28;20075;-72
2023/08/02 20:16:19;;;;;;;6.43;0.60;;;;;;;21.95;60.03;98343.03;10509852;28;20108;-71
2023/08/02 20:21:22;;;;;;;4.40;0.40;;;;;;;21.89;59.63;98357.13;10508023;28;20098;-72
2023/08/02 20:26:25;;;;;;;2.38;0.40;;;;;;;21.89;59.56;98365.31;10510161;28;20059;-72
2023/08/02 20:31:38;;;;;;;5.00;0.40;;;;;;;21.83;59.83;98370.06;10508863;28;20053;-71
2023/08/02 20:36:40;;;;;;;2.17;0.30;;;;;;;21.83;60.00;98372.78;10509421;28;20040;-71
2023/08/02 20:41:45;;;;;;;4.47;0.30;;;;;;;21.83;60.00;98374.72;10509239;28;20112;-71
2023/08/02 20:46:49;;;;;;;4.25;0.40;;;;;;;21.80;60.25;98389.81;10506564;28;20107;-72
2023/08/02 20:51:50;;;;;;;5.03;0.50;;;;;;;21.78;59.81;98389.28;10506368;28;20353;-71
2023/08/02 20:56:53;;;;;;;4.97;0.55;;;;;;;21.76;60.44;98388.75;10507270;28;20048;-71
2023/08/02 21:01:54;;;;;;;6.60;0.50;;;;;;;21.66;59.96;98384.28;10506914;28;20408;-71
2023/08/02 21:06:58;;;;;;;5.95;0.30;;;;;;;21.61;60.00;98389.03;10507749;28;20053;-72
2023/08/02 21:12:12;;;;;;;3.35;1.05;;;;;;;21.50;59.56;98393.81;10503907;28;20320;-71
2023/08/02 21:17:18;;;;;;;3.08;0.55;;;;;;;21.42;59.96;98389.81;10503345;28;20074;-72
2023/08/02 21:22:20;;;;;;;11.27;0.43;;;;;;;21.38;60.01;98383.31;10502885;28;20344;-71
2023/08/02 21:27:21;;;;;;;4.85;0.40;;;;;;;21.28;60.18;98386.19;10502925;28;20318;-73
2023/08/02 21:32:23;;;;;;;6.95;0.35;;;;;;;21.15;60.12;98391.28;10504088;28;20273;-73
2023/08/02 21:37:40;;;;;;;8.68;0.50;;;;;;;21.10;60.20;98396.81;10506166;28;20044;-72
2023/08/02 21:42:42;;;;;;;4.10;0.75;;;;;;;21.00;60.47;98396.94;10503417;28;20079;-72
2023/08/02 21:47:45;;;;;;;4.68;0.40;;;;;;;21.02;60.16;98405.66;10503412;28;20102;-72
2023/08/02 21:52:51;;;;;;;3.92;0.73;;;;;;;20.98;60.51;98407.34;10506638;28;20037;-73
2023/08/02 21:57:52;;;;;;;5.63;0.40;;;;;;;21.01;60.41;98414.97;10504695;28;20044;-72
2023/08/02 22:02:56;;;;;;;3.53;1.20;;;;;;;20.99;60.38;98423.44;10503645;28;20301;-73
2023/08/02 22:08:01;;;;;;;6.50;0.75;;;;;;;21.00;60.50;98430.53;10503173;28;20218;-72
2023/08/02 22:13:16;;;;;;;3.45;0.30;;;;;;;21.00;60.44;98441.47;10504831;28;20126;-72
2023/08/02 22:18:17;;;;;;;6.00;0.95;;;;;;;21.01;60.56;98431.38;10504505;28;20056;-72
2023/08/02 22:23:19;;;;;;;3.80;0.80;;;;;;;21.05;60.71;98440.59;10501743;28;20044;-72
2023/08/02 22:28:20;;;;;;;7.45;0.85;;;;;;;21.05;60.53;98434.31;10504508;28;20116;-72
2023/08/02 22:33:22;;;;;;;4.38;0.50;;;;;;;21.10;60.21;98445.19;10503718;28;20118;-73
2023/08/02 22:38:24;;;;;;;1.83;0.30;;;;;;;21.14;60.05;98452.50;10495090;28;20337;-71
2023/08/02 22:43:38;;;;;;;6.35;0.50;;;;;;;21.23;59.82;98477.25;10503236;28;20335;-71
2023/08/02 22:48:40;;;;;;;8.15;0.40;;;;;;;21.30;59.31;98480.44;10501929;28;20119;-71
2023/08/02 22:54:01;;;;;;;3.58;0.30;;;;;;;21.36;59.24;98473.00;10502864;28;20045;-71
2023/08/02 22:59:03;;;;;;;2.92;0.32;;;;;;;21.44;58.80;98479.75;10505008;28;20065;-70
2023/08/02 23:04:04;;;;;;;5.45;0.22;;;;;;;21.50;58.28;98493.06;10502589;28;20051;-71
2023/08/02 23:09:11;;;;;;;4.03;0.20;;;;;;;21.52;57.91;98484.56;10502251;28;20041;-71
2023/08/02 23:14:13;;;;;;;;;;;;;;;21.53;59.04;98486.22;10505625;28;20058;-71
2023/08/02 23:19:16;;;;;;;3.63;0.20;;;;;;;21.57;58.16;98482.56;10509610;28;19948;-72
2023/08/02 23:24:18;;;;;;;3.92;0.50;;;;;;;21.54;57.69;98483.19;10511312;28;20253;-71
2023/08/02 23:29:19;;;;;;;8.90;1.60;;;;;;;21.57;57.42;98468.91;10510882;28;20431;-72